Terminal Aerodrome Forecast
Issued by NWS

Home | Current Version | Previous Version | Text Only | Print | Product List | Glossary On
Versions: 1 2 3 4 5 6 7 8 9 10 11 12 13 14 15 16 17
000
FTUS42 KTBW 240520
TAFLAL
TAF
KLAL 240520Z 2406/2506 02004KT 6SM BR OVC006
      TEMPO 2407/2411 4SM -DZ BR
     FM241700 02008KT P6SM BKN015
     FM241900 04007KT P6SM SCT020
     FM242300 VRB03KT P6SM SKC
     FM250400 VRB03KT 6SM BR SCT005
      AMD NOT SKED 2406/2412=

USA.gov is the U.S. government's official web portal to all federal, state and local government web resources and services.